Time;durP1;ratioP1;P1;durP2;ratioP2;P2;SDS_P1;SDS_P2;PMS_P1;PMS_P2;Temp;Humidity;BMP_temperature;BMP_pressure;BME280_temperature;BME280_humidity;BME280_pressure;Samples;Min_cycle;Max_cycle;Signal;HPM_P1;HPM_P2
2023/09/17 00:01:25;;;;;;;1.60;1.40;;;31.20;2.40;;;;;;4964870;28;20195;-67
2023/09/17 00:03:52;;;;;;;3.25;1.60;;;31.40;1.00;;;;;;4957823;28;20315;-67
2023/09/17 00:06:20;;;;;;;2.55;2.13;;;31.60;1.00;;;;;;4962167;28;20184;-71
2023/09/17 00:08:47;;;;;;;3.20;1.60;;;31.70;1.00;;;;;;4971186;28;20253;-69
2023/09/17 00:11:15;;;;;;;5.25;2.05;;;32.00;1.00;;;;;;4974710;28;20180;-71
2023/09/17 00:17:05;;;;;;;4.25;2.03;;;32.60;1.00;;;;;;4974598;28;20258;-70
2023/09/17 00:19:32;;;;;;;2.75;1.45;;;32.70;1.00;;;;;;4975278;28;20656;-70
2023/09/17 00:22:00;;;;;;;3.03;1.83;;;32.60;1.00;;;;;;4974706;28;20188;-69
2023/09/17 00:24:28;;;;;;;5.00;1.50;;;33.00;1.00;;;;;;4975171;28;20551;-69
2023/09/17 00:26:56;;;;;;;2.55;1.52;;;33.00;1.00;;;;;;4974959;28;20189;-69
2023/09/17 00:29:25;;;;;;;4.78;1.55;;;33.60;1.00;;;;;;4958043;28;20195;-68
2023/09/17 00:31:52;;;;;;;3.17;1.63;;;33.10;1.00;;;;;;4956561;28;20187;-68
2023/09/17 00:34:19;;;;;;;4.82;1.65;;;32.60;1.00;;;;;;4974881;28;20209;-69
2023/09/17 00:36:46;;;;;;;3.63;1.55;;;32.70;1.00;;;;;;4953626;28;20199;-68
2023/09/17 00:39:14;;;;;;;3.05;1.80;;;32.70;1.00;;;;;;4973240;28;20262;-68
2023/09/17 00:41:41;;;;;;;5.10;1.60;;;33.00;1.00;;;;;;4973297;28;20179;-69
2023/09/17 00:44:08;;;;;;;2.58;1.48;;;33.30;1.00;;;;;;4989646;28;20191;-68
2023/09/17 00:46:42;;;;;;;5.30;2.00;;;33.60;1.00;;;;;;4992747;28;20278;-69
2023/09/17 00:49:13;;;;;;;2.35;1.80;;;33.70;1.00;;;;;;4977469;28;20194;-68
2023/09/17 00:51:41;;;;;;;4.60;1.50;;;33.60;1.00;;;;;;4973360;28;20645;-67
2023/09/17 00:54:11;;;;;;;6.30;1.73;;;33.80;1.00;;;;;;4973153;28;20183;-68
2023/09/17 00:56:39;;;;;;;2.55;1.52;;;33.90;1.00;;;;;;4972815;28;20242;-69
2023/09/17 00:59:10;;;;;;;3.90;1.60;;;34.50;1.00;;;;;;4972979;28;20171;-69
2023/09/17 01:01:38;;;;;;;5.07;1.80;;;34.40;1.00;;;;;;4972118;28;20238;-67
2023/09/17 01:04:07;;;;;;;2.13;1.38;;;34.20;1.00;;;;;;4972875;28;20320;-67
2023/09/17 01:06:36;;;;;;;2.17;1.40;;;34.90;1.00;;;;;;4972787;28;20172;-68
2023/09/17 01:09:07;;;;;;;1.90;1.13;;;34.70;1.00;;;;;;4955244;28;20179;-68
2023/09/17 01:11:38;;;;;;;3.10;1.70;;;35.00;1.00;;;;;;4972513;28;20217;-68
2023/09/17 01:14:23;;;;;;;2.95;1.30;;;34.90;1.00;;;;;;4972877;28;20211;-69
2023/09/17 01:20:29;;;;;;;1.73;1.40;;;34.80;1.00;;;;;;4972274;28;20194;-69
2023/09/17 01:23:26;;;;;;;1.50;1.08;;;34.60;1.00;;;;;;4972382;28;20194;-69
2023/09/17 01:25:56;;;;;;;2.20;1.10;;;34.40;1.00;;;;;;4972512;28;20913;-68
2023/09/17 01:28:24;;;;;;;1.15;1.02;;;34.30;1.00;;;;;;4972663;28;20194;-69
2023/09/17 01:30:51;;;;;;;1.67;1.02;;;34.40;1.00;;;;;;4972588;28;20195;-68
2023/09/17 01:33:19;;;;;;;1.85;1.08;;;34.40;1.00;;;;;;4972370;28;20187;-72
2023/09/17 01:36:03;;;;;;;3.65;1.00;;;34.60;1.00;;;;;;4972533;28;20250;-71
2023/09/17 01:38:40;;;;;;;2.55;1.02;;;34.70;1.00;;;;;;4970986;28;20191;-72
2023/09/17 01:41:09;;;;;;;1.77;1.20;;;34.10;1.00;;;;;;4965567;28;20191;-69
2023/09/17 01:43:38;;;;;;;3.60;1.10;;;34.10;1.00;;;;;;4972679;28;20550;-71
2023/09/17 01:46:06;;;;;;;3.15;1.20;;;34.40;1.00;;;;;;4950850;29;20203;-71
2023/09/17 01:48:35;;;;;;;2.90;1.20;;;34.90;1.00;;;;;;4936057;29;20184;-70
2023/09/17 01:51:04;;;;;;;1.77;1.13;;;35.20;1.00;;;;;;4953163;29;20188;-70
2023/09/17 01:53:33;;;;;;;2.92;1.50;;;35.30;1.00;;;;;;4953096;29;20176;-71
2023/09/17 01:56:01;;;;;;;4.63;1.40;;;35.20;1.00;;;;;;4952878;29;20220;-69
2023/09/17 01:58:29;;;;;;;1.65;1.02;;;34.80;1.00;;;;;;4963945;28;20252;-71
2023/09/17 02:00:56;;;;;;;1.85;1.02;;;34.80;1.00;;;;;;4991683;28;20250;-70
2023/09/17 02:03:24;;;;;;;1.90;1.02;;;34.10;1.00;;;;;;4991706;28;20234;-71
2023/09/17 02:05:51;;;;;;;2.63;1.17;;;34.20;1.00;;;;;;4974352;28;20179;-71
2023/09/17 02:08:19;;;;;;;2.20;1.05;;;34.10;1.00;;;;;;4991887;28;20232;-71
2023/09/17 02:10:46;;;;;;;1.73;0.95;;;34.40;1.00;;;;;;4991590;28;20230;-71
2023/09/17 02:13:13;;;;;;;3.28;1.17;;;34.40;1.00;;;;;;4991869;28;20171;-70
2023/09/17 02:15:41;;;;;;;2.35;0.85;;;34.70;1.00;;;;;;4991498;28;20265;-68
2023/09/17 02:18:08;;;;;;;1.73;1.15;;;35.20;1.00;;;;;;4991709;28;20305;-71
2023/09/17 02:20:39;;;;;;;2.40;1.10;;;34.90;1.00;;;;;;4993564;28;20187;-69
2023/09/17 02:23:09;;;;;;;1.63;1.20;;;35.00;1.00;;;;;;4995310;28;20182;-69
2023/09/17 02:25:36;;;;;;;1.38;1.05;;;34.60;1.00;;;;;;4994971;28;20183;-70
2023/09/17 02:34:50;;;;;;;2.53;1.33;;;35.60;1.00;;;;;;4960837;28;20203;-68
2023/09/17 02:37:18;;;;;;;1.02;0.90;;;34.90;1.00;;;;;;4975437;28;20223;-69
2023/09/17 02:43:07;;;;;;;1.67;1.27;;;35.60;1.00;;;;;;4973479;28;20308;-69
2023/09/17 02:45:35;;;;;;;2.75;1.02;;;35.00;1.00;;;;;;4972615;28;20195;-72
2023/09/17 02:48:03;;;;;;;3.00;1.33;;;34.30;1.00;;;;;;4974622;28;20195;-69
2023/09/17 02:50:30;;;;;;;2.15;1.10;;;34.50;1.00;;;;;;4957622;28;20198;-70
2023/09/17 02:52:58;;;;;;;1.27;0.95;;;34.50;1.00;;;;;;4975205;28;20206;-68
2023/09/17 02:55:25;;;;;;;1.73;0.85;;;34.60;1.00;;;;;;4975089;28;20175;-70
2023/09/17 02:57:54;;;;;;;1.92;0.98;;;34.40;1.00;;;;;;4974915;28;20225;-70
2023/09/17 03:00:21;;;;;;;2.35;0.98;;;34.70;1.00;;;;;;4974787;28;20187;-70
2023/09/17 03:02:54;;;;;;;3.13;1.05;;;34.80;1.00;;;;;;4974509;28;20231;-69
2023/09/17 03:05:22;;;;;;;3.35;0.90;;;35.20;1.00;;;;;;4974999;28;20214;-69
2023/09/17 03:07:49;;;;;;;2.35;1.20;;;35.10;1.00;;;;;;4974626;28;20238;-69
2023/09/17 03:10:18;;;;;;;3.72;0.98;;;35.20;1.00;;;;;;4975118;28;20230;-70
2023/09/17 03:12:49;;;;;;;2.97;0.98;;;34.90;1.00;;;;;;4974681;28;20198;-70
2023/09/17 03:15:17;;;;;;;6.97;1.42;;;34.90;1.00;;;;;;4974739;28;20186;-70
2023/09/17 03:17:44;;;;;;;1.80;1.00;;;35.30;1.00;;;;;;4974856;28;20245;-70
2023/09/17 03:20:18;;;;;;;1.88;1.10;;;35.30;1.00;;;;;;4974772;28;20179;-69
2023/09/17 03:22:46;;;;;;;2.78;0.80;;;34.90;1.00;;;;;;4974147;28;20594;-69
2023/09/17 03:25:14;;;;;;;3.20;0.90;;;34.90;1.00;;;;;;4974729;28;20183;-69
2023/09/17 03:27:45;;;;;;;3.25;1.33;;;34.90;1.00;;;;;;4974612;28;20242;-69
2023/09/17 03:30:13;;;;;;;1.58;1.10;;;35.50;1.00;;;;;;4974580;28;20210;-69
2023/09/17 03:32:41;;;;;;;1.60;0.60;;;35.50;1.00;;;;;;4974155;28;20186;-69
2023/09/17 03:35:09;;;;;;;1.75;0.80;;;35.60;1.00;;;;;;4974051;28;20190;-69
2023/09/17 03:37:36;;;;;;;3.55;1.20;;;35.70;1.00;;;;;;4974211;28;20230;-70
2023/09/17 03:40:14;;;;;;;1.45;0.77;;;;;;;;;;4974161;28;20523;-69
2023/09/17 03:42:43;;;;;;;2.70;0.95;;;35.50;1.00;;;;;;4974109;28;20241;-71
2023/09/17 03:45:12;;;;;;;3.03;1.08;;;35.80;1.00;;;;;;4974324;28;20175;-69
2023/09/17 03:47:43;;;;;;;2.95;0.90;;;;;;;;;;4973913;28;20198;-70
2023/09/17 03:50:14;;;;;;;1.67;1.00;;;34.60;1.00;;;;;;4974286;28;20655;-71
2023/09/17 03:52:45;;;;;;;1.38;0.95;;;34.70;1.00;;;;;;4973826;28;20623;-68
2023/09/17 03:55:13;;;;;;;1.85;0.57;;;34.60;1.00;;;;;;4974239;28;20560;-70
2023/09/17 03:57:41;;;;;;;0.93;0.70;;;34.90;1.00;;;;;;4973842;28;20249;-71
2023/09/17 04:00:13;;;;;;;0.90;0.52;;;35.00;1.00;;;;;;4974055;28;20266;-70
2023/09/17 04:02:42;;;;;;;2.10;0.80;;;35.00;1.00;;;;;;4973267;28;20195;-70
2023/09/17 04:05:12;;;;;;;1.00;0.82;;;35.00;1.00;;;;;;4974157;28;20541;-71
2023/09/17 04:07:46;;;;;;;2.78;0.80;;;35.20;1.00;;;;;;4973791;28;20191;-71
2023/09/17 04:10:15;;;;;;;1.80;0.98;;;35.20;1.00;;;;;;4973631;28;20281;-71
2023/09/17 04:12:45;;;;;;;0.85;0.63;;;35.00;1.00;;;;;;4973660;28;20221;-70
2023/09/17 04:15:16;;;;;;;1.33;0.95;;;;;;;;;;4973721;28;20271;-70
2023/09/17 04:17:44;;;;;;;1.50;0.80;;;34.70;3.90;;;;;;4973442;28;20222;-71
2023/09/17 04:20:21;;;;;;;1.08;0.82;;;34.90;1.00;;;;;;4973564;28;20187;-70
2023/09/17 04:22:50;;;;;;;0.95;0.85;;;34.80;1.00;;;;;;4973253;28;20187;-70
2023/09/17 04:25:20;;;;;;;2.70;0.82;;;34.40;1.00;;;;;;4973495;28;20190;-69
2023/09/17 04:27:47;;;;;;;0.80;0.70;;;34.30;1.00;;;;;;4956217;28;20696;-69
2023/09/17 04:30:19;;;;;;;1.42;0.63;;;34.30;1.00;;;;;;4972328;28;20226;-70
2023/09/17 04:32:55;;;;;;;1.10;0.85;;;34.30;1.00;;;;;;4972997;28;20256;-69
2023/09/17 04:38:48;;;;;;;1.52;0.60;;;34.20;1.00;;;;;;4953783;29;20250;-70
2023/09/17 04:41:15;;;;;;;1.02;0.70;;;33.90;1.00;;;;;;4956406;28;20196;-70
2023/09/17 04:43:45;;;;;;;2.50;0.80;;;33.70;1.00;;;;;;4972798;28;20179;-70
2023/09/17 04:46:12;;;;;;;1.05;0.77;;;;;;;;;;4972646;28;20724;-70
2023/09/17 04:48:39;;;;;;;5.20;1.10;;;33.80;1.00;;;;;;4973201;28;20653;-70
2023/09/17 04:51:07;;;;;;;1.98;0.70;;;34.00;1.00;;;;;;4967966;28;20230;-70
2023/09/17 04:53:34;;;;;;;2.95;0.60;;;34.20;1.00;;;;;;4968439;28;20191;-70
2023/09/17 04:56:02;;;;;;;1.55;0.73;;;34.00;1.00;;;;;;4972890;28;20581;-70
2023/09/17 04:58:29;;;;;;;0.98;0.60;;;34.00;1.00;;;;;;4972745;28;20225;-70
2023/09/17 05:00:58;;;;;;;6.13;1.00;;;33.90;1.00;;;;;;4955695;28;20185;-70
2023/09/17 05:03:25;;;;;;;2.28;0.70;;;33.90;1.00;;;;;;4972880;28;20567;-71
2023/09/17 05:05:52;;;;;;;1.58;0.70;;;33.90;1.00;;;;;;4972651;28;20238;-70
2023/09/17 05:08:20;;;;;;;2.80;0.70;;;33.90;1.00;;;;;;4972396;28;20187;-71
2023/09/17 05:10:48;;;;;;;1.67;0.55;;;33.90;1.00;;;;;;4971854;28;20187;-71
2023/09/17 05:13:15;;;;;;;4.28;0.57;;;33.90;1.00;;;;;;4972680;28;20175;-70
2023/09/17 05:15:43;;;;;;;0.60;0.47;;;33.70;1.00;;;;;;4955371;28;20191;-71
2023/09/17 05:18:13;;;;;;;1.50;0.70;;;33.70;1.00;;;;;;4972508;28;20250;-71
2023/09/17 05:20:43;;;;;;;0.75;0.60;;;33.60;1.00;;;;;;4972912;28;20243;-72
2023/09/17 05:23:11;;;;;;;1.98;0.80;;;33.40;1.00;;;;;;4971882;28;20191;-70
2023/09/17 05:25:39;;;;;;;0.70;0.40;;;33.40;1.00;;;;;;4971673;28;20179;-71
2023/09/17 05:28:07;;;;;;;0.70;0.70;;;33.30;1.00;;;;;;4972584;28;20190;-71
2023/09/17 05:30:35;;;;;;;1.15;0.60;;;33.20;1.00;;;;;;4961603;28;20187;-71
2023/09/17 05:33:06;;;;;;;3.55;0.93;;;33.10;1.00;;;;;;4969832;28;20191;-70
2023/09/17 05:35:35;;;;;;;0.50;0.43;;;33.10;1.00;;;;;;4972053;28;20171;-71
2023/09/17 05:38:03;;;;;;;1.02;0.50;;;33.10;1.00;;;;;;4972558;28;20215;-69
2023/09/17 05:40:30;;;;;;;1.00;0.45;;;33.00;1.00;;;;;;4972602;28;20180;-71
2023/09/17 05:42:58;;;;;;;0.68;0.57;;;32.90;1.00;;;;;;4970927;28;20661;-70
2023/09/17 05:45:29;;;;;;;2.88;0.50;;;32.90;1.00;;;;;;4968760;28;20191;-70
2023/09/17 05:47:56;;;;;;;2.80;0.60;;;32.90;1.00;;;;;;4972560;28;20334;-69
2023/09/17 05:50:24;;;;;;;1.05;0.55;;;33.00;1.00;;;;;;4963390;28;20226;-71
2023/09/17 05:52:51;;;;;;;1.85;0.82;;;32.90;1.00;;;;;;4952011;28;20192;-70
2023/09/17 05:55:19;;;;;;;1.40;0.77;;;32.80;1.00;;;;;;4954638;28;20235;-71
2023/09/17 05:57:46;;;;;;;0.40;0.40;;;33.00;1.00;;;;;;4956796;28;20752;-70
2023/09/17 06:00:24;;;;;;;0.40;0.40;;;32.90;1.00;;;;;;4962383;28;20741;-71
2023/09/17 06:02:52;;;;;;;1.58;0.60;;;32.90;1.00;;;;;;4975754;28;20231;-70
2023/09/17 06:08:34;;;;;;;0.75;0.57;;;32.70;1.00;;;;;;4975983;28;20201;-71
2023/09/17 06:11:01;;;;;;;1.02;0.50;;;32.70;1.00;;;;;;4975953;28;20179;-70
2023/09/17 06:13:29;;;;;;;1.25;0.50;;;32.50;1.00;;;;;;4975139;28;20199;-70
2023/09/17 06:15:56;;;;;;;0.80;0.70;;;32.50;1.00;;;;;;4976095;28;20172;-71
2023/09/17 06:18:23;;;;;;;0.40;0.35;;;32.50;1.00;;;;;;4975998;28;20306;-70
2023/09/17 06:20:51;;;;;;;1.15;0.50;;;32.40;1.00;;;;;;4976095;28;20176;-71
2023/09/17 06:23:18;;;;;;;1.63;0.70;;;32.50;1.00;;;;;;4975621;28;20191;-72
2023/09/17 06:25:46;;;;;;;0.63;0.50;;;32.50;1.00;;;;;;4975780;28;20187;-70
2023/09/17 06:28:13;;;;;;;0.75;0.50;;;32.60;1.00;;;;;;4975569;28;20242;-71
2023/09/17 06:30:41;;;;;;;1.50;0.80;;;32.40;1.00;;;;;;4958359;28;20640;-70
2023/09/17 06:33:08;;;;;;;0.73;0.52;;;32.40;1.00;;;;;;4975615;28;20195;-72
2023/09/17 06:35:35;;;;;;;0.85;0.77;;;32.30;1.00;;;;;;4975574;28;20271;-72
2023/09/17 06:38:04;;;;;;;0.40;0.40;;;32.30;1.00;;;;;;4975642;28;20323;-71
2023/09/17 06:40:32;;;;;;;1.45;0.70;;;32.20;1.00;;;;;;4975367;28;20198;-72
2023/09/17 06:42:59;;;;;;;1.15;0.70;;;32.30;1.00;;;;;;4975456;28;20599;-72
2023/09/17 06:45:26;;;;;;;0.98;0.68;;;32.30;1.00;;;;;;4975494;28;20171;-70
2023/09/17 06:47:54;;;;;;;1.50;0.50;;;32.30;1.00;;;;;;4975002;28;20183;-72
2023/09/17 06:50:21;;;;;;;1.08;0.57;;;32.10;1.00;;;;;;4957742;28;20238;-71
2023/09/17 06:52:50;;;;;;;1.30;0.73;;;32.10;1.00;;;;;;4975058;28;20195;-70
2023/09/17 06:55:18;;;;;;;0.80;0.60;;;31.90;1.00;;;;;;4975238;28;20226;-70
2023/09/17 06:57:45;;;;;;;3.10;0.60;;;31.70;1.00;;;;;;4975131;28;20227;-72
2023/09/17 07:00:14;;;;;;;3.85;0.70;;;31.50;1.00;;;;;;4975038;28;20669;-71
2023/09/17 07:02:41;;;;;;;0.70;0.68;;;31.30;1.00;;;;;;4974688;28;20183;-71
2023/09/17 07:05:10;;;;;;;0.93;0.60;;;31.20;1.00;;;;;;4974747;28;20244;-70
2023/09/17 07:07:38;;;;;;;1.05;0.80;;;30.90;1.00;;;;;;4957954;28;20176;-71
2023/09/17 07:10:06;;;;;;;2.85;0.95;;;30.80;1.00;;;;;;4974639;28;20557;-73
2023/09/17 07:12:38;;;;;;;2.15;0.80;;;30.60;1.00;;;;;;4974708;28;20195;-73
2023/09/17 07:15:10;;;;;;;3.40;0.65;;;30.40;1.00;;;;;;4974940;28;20223;-71
2023/09/17 07:17:39;;;;;;;4.22;0.80;;;30.30;1.00;;;;;;4974849;28;20223;-70
2023/09/17 07:20:08;;;;;;;2.00;0.97;;;30.20;1.00;;;;;;4957580;28;20189;-71
2023/09/17 07:22:35;;;;;;;1.95;0.70;;;30.10;1.00;;;;;;4974877;28;20191;-71
2023/09/17 07:28:24;;;;;;;2.25;1.20;;;29.70;1.00;;;;;;4974272;28;20182;-72
2023/09/17 07:30:56;;;;;;;4.80;1.17;;;29.40;1.00;;;;;;4974179;28;20233;-72
2023/09/17 07:33:24;;;;;;;1.10;0.90;;;29.40;1.00;;;;;;4941484;28;20674;-70
2023/09/17 07:35:52;;;;;;;1.50;0.97;;;29.20;1.00;;;;;;4957425;28;20187;-71
2023/09/17 07:38:20;;;;;;;1.80;0.73;;;29.10;1.00;;;;;;4974314;28;20226;-70
2023/09/17 07:40:48;;;;;;;4.20;1.10;;;28.90;1.00;;;;;;4957330;28;20274;-71
2023/09/17 07:43:15;;;;;;;2.30;0.90;;;28.60;1.00;;;;;;4974478;28;20198;-71
2023/09/17 07:45:48;;;;;;;2.60;1.10;;;28.50;1.00;;;;;;4974452;28;20554;-72
2023/09/17 07:48:15;;;;;;;5.47;1.30;;;28.40;1.00;;;;;;4974475;28;20207;-71
2023/09/17 07:50:55;;;;;;;1.70;0.80;;;28.20;1.00;;;;;;4974316;28;20665;-72
2023/09/17 07:53:22;;;;;;;3.93;1.27;;;27.90;1.00;;;;;;4973975;28;20179;-71
2023/09/17 07:55:50;;;;;;;1.13;0.90;;;27.60;1.00;;;;;;4974054;28;20183;-70
2023/09/17 07:58:17;;;;;;;3.17;1.00;;;27.30;1.00;;;;;;4973337;28;20277;-71
2023/09/17 08:00:45;;;;;;;4.43;1.30;;;27.10;1.00;;;;;;4974045;28;20281;-69
2023/09/17 08:03:19;;;;;;;1.60;1.10;;;26.80;1.00;;;;;;4956124;28;20258;-71
2023/09/17 08:05:50;;;;;;;4.43;1.60;;;26.50;1.00;;;;;;4973512;28;20277;-71
2023/09/17 08:08:18;;;;;;;1.90;1.60;;;26.20;1.00;;;;;;4973758;28;20179;-73
2023/09/17 08:10:46;;;;;;;1.67;1.20;;;26.00;1.00;;;;;;4973516;28;20237;-70
2023/09/17 08:13:14;;;;;;;4.00;1.20;;;25.70;1.00;;;;;;4973692;28;20203;-70
2023/09/17 08:15:41;;;;;;;1.40;1.03;;;25.50;1.00;;;;;;4973641;28;20183;-71
2023/09/17 08:18:09;;;;;;;2.77;1.50;;;25.30;1.00;;;;;;4972948;28;20260;-71
2023/09/17 08:20:37;;;;;;;4.53;1.83;;;25.30;1.00;;;;;;4973861;28;20180;-72
2023/09/17 08:23:04;;;;;;;5.27;1.70;;;25.20;1.00;;;;;;4972655;28;20199;-73
2023/09/17 08:25:33;;;;;;;3.23;1.93;;;25.10;1.00;;;;;;4973617;28;20176;-73
2023/09/17 08:28:01;;;;;;;3.17;1.80;;;25.00;1.00;;;;;;4973649;28;20179;-72
2023/09/17 08:30:28;;;;;;;2.90;1.97;;;25.00;1.00;;;;;;4956348;28;20214;-71
2023/09/17 08:32:57;;;;;;;2.63;1.50;;;24.90;1.00;;;;;;4973346;28;20675;-71
2023/09/17 08:35:24;;;;;;;6.03;2.00;;;24.80;1.00;;;;;;4973287;28;20188;-71
2023/09/17 08:37:52;;;;;;;6.23;1.97;;;24.80;1.00;;;;;;4972532;28;20413;-70
2023/09/17 08:40:23;;;;;;;4.73;1.80;;;24.60;1.00;;;;;;4973001;28;20607;-71
2023/09/17 08:42:51;;;;;;;5.47;1.70;;;24.40;1.00;;;;;;4973285;28;20179;-72
2023/09/17 08:45:19;;;;;;;2.90;1.90;;;24.20;1.00;;;;;;4973060;28;20175;-73
2023/09/17 08:47:47;;;;;;;4.50;1.60;;;24.10;1.00;;;;;;4973235;28;20263;-72
2023/09/17 08:50:14;;;;;;;2.20;1.67;;;23.90;1.00;;;;;;4955565;28;20554;-72
2023/09/17 08:52:52;;;;;;;3.53;1.90;;;23.80;1.00;;;;;;4964868;28;20198;-71
2023/09/17 08:55:21;;;;;;;9.23;6.10;;;23.50;1.00;;;;;;4973170;28;20216;-69
2023/09/17 08:58:05;;;;;;;8.83;6.77;;;23.40;1.00;;;;;;4976666;28;20676;-72
2023/09/17 09:00:35;;;;;;;7.00;4.40;;;23.20;1.00;;;;;;4955244;29;20172;-71
2023/09/17 09:03:06;;;;;;;3.97;2.77;;;23.10;1.00;;;;;;4954900;29;20215;-71
2023/09/17 09:05:35;;;;;;;3.87;2.17;;;23.10;1.00;;;;;;4964899;28;20262;-71
2023/09/17 09:08:03;;;;;;;5.20;2.60;;;23.10;1.00;;;;;;4957119;28;20189;-72
2023/09/17 09:10:31;;;;;;;3.33;2.17;;;23.00;1.00;;;;;;4974208;28;20187;-71
2023/09/17 09:12:59;;;;;;;3.50;2.20;;;22.80;1.00;;;;;;4974434;28;20551;-71
2023/09/17 09:15:27;;;;;;;5.90;2.17;;;22.60;1.00;;;;;;4974522;28;20191;-71
2023/09/17 09:17:58;;;;;;;5.10;2.03;;;22.50;2.00;;;;;;4974168;28;20662;-71
2023/09/17 09:20:26;;;;;;;3.90;2.20;;;22.40;1.80;;;;;;4974459;28;20184;-70
2023/09/17 09:22:55;;;;;;;2.87;1.60;;;22.40;1.80;;;;;;4974385;28;20277;-70
2023/09/17 09:25:28;;;;;;;4.70;1.80;;;22.30;3.40;;;;;;4974673;28;20183;-71
2023/09/17 09:28:02;;;;;;;2.80;1.90;;;22.10;4.70;;;;;;4973022;28;20210;-71
2023/09/17 09:30:30;;;;;;;3.40;1.73;;;22.00;4.70;;;;;;4980390;28;20666;-70
2023/09/17 09:32:58;;;;;;;3.87;1.90;;;21.90;4.50;;;;;;4980498;28;20290;-70
2023/09/17 09:35:26;;;;;;;2.37;1.80;;;21.90;6.40;;;;;;4963633;28;20230;-70
2023/09/17 09:37:57;;;;;;;7.47;2.23;;;21.80;6.00;;;;;;4980344;28;20230;-69
2023/09/17 09:40:26;;;;;;;3.83;2.50;;;21.80;5.80;;;;;;4980481;28;20182;-69
2023/09/17 09:42:53;;;;;;;4.53;2.60;;;21.90;4.90;;;;;;4980485;28;20202;-71
2023/09/17 09:45:21;;;;;;;6.87;2.80;;;21.80;6.70;;;;;;4979367;28;20278;-68
2023/09/17 09:47:50;;;;;;;2.90;2.20;;;21.80;8.50;;;;;;4980275;28;20193;-70
2023/09/17 09:50:27;;;;;;;5.00;2.80;;;21.70;7.20;;;;;;4980219;28;20277;-71
2023/09/17 09:52:55;;;;;;;4.83;2.20;;;21.60;8.30;;;;;;4979691;28;21024;-70
2023/09/17 09:55:27;;;;;;;2.63;2.00;;;21.60;9.30;;;;;;4962675;28;20256;-71
2023/09/17 09:57:55;;;;;;;2.60;2.00;;;21.60;8.70;;;;;;4963730;28;20273;-72
2023/09/17 10:00:26;;;;;;;3.27;2.13;;;21.50;10.50;;;;;;4980029;28;20540;-70
2023/09/17 10:02:54;;;;;;;6.33;1.77;;;21.40;10.10;;;;;;4979268;28;20223;-70
2023/09/17 10:05:39;;;;;;;4.63;2.10;;;21.20;10.60;;;;;;4962533;28;20202;-71
2023/09/17 10:08:12;;;;;;;5.43;2.00;;;21.00;13.10;;;;;;4979698;28;20187;-71
2023/09/17 10:10:41;;;;;;;2.20;2.00;;;20.90;13.80;;;;;;4979979;28;20180;-71
2023/09/17 10:13:12;;;;;;;2.20;1.60;;;20.70;15.50;;;;;;4979427;28;20191;-70
2023/09/17 10:15:43;;;;;;;3.17;1.90;;;20.50;16.10;;;;;;4947466;29;20286;-70
2023/09/17 10:18:14;;;;;;;2.70;1.80;;;20.50;15.00;;;;;;4960723;28;20227;-71
2023/09/17 10:20:43;;;;;;;5.37;1.80;;;20.40;16.10;;;;;;4972685;28;20554;-70
2023/09/17 10:23:15;;;;;;;3.33;2.20;;;20.20;18.10;;;;;;4979592;28;20198;-71
2023/09/17 10:25:44;;;;;;;4.90;1.93;;;20.20;19.20;;;;;;4979751;28;20183;-71
2023/09/17 10:28:16;;;;;;;3.00;1.90;;;20.20;19.60;;;;;;4979866;28;20613;-70
2023/09/17 10:30:46;;;;;;;6.07;2.20;;;20.00;20.70;;;;;;4979341;28;20637;-71
2023/09/17 10:33:16;;;;;;;5.77;2.00;;;20.00;23.10;;;;;;4979026;28;20674;-72
2023/09/17 10:35:45;;;;;;;5.00;1.80;;;19.90;20.00;;;;;;4978440;28;20189;-71
2023/09/17 10:38:15;;;;;;;3.67;1.67;;;19.90;19.80;;;;;;4979831;28;20313;-70
2023/09/17 10:40:44;;;;;;;3.83;1.60;;;19.90;18.90;;;;;;4977373;28;20175;-70
2023/09/17 10:43:13;;;;;;;3.47;1.60;;;19.80;20.20;;;;;;4959661;28;20641;-70
2023/09/17 10:45:44;;;;;;;4.33;1.97;;;19.70;20.70;;;;;;4976288;28;20176;-70
2023/09/17 10:48:14;;;;;;;2.53;1.87;;;19.60;20.60;;;;;;4976424;28;20258;-71
2023/09/17 10:50:42;;;;;;;1.50;1.30;;;19.60;20.20;;;;;;4976315;28;20171;-70
2023/09/17 10:53:10;;;;;;;2.13;1.80;;;19.60;19.40;;;;;;4976457;28;20291;-71
2023/09/17 10:55:43;;;;;;;4.10;2.10;;;19.50;19.80;;;;;;4975855;28;20270;-71
2023/09/17 10:58:20;;;;;;;2.30;1.70;;;19.50;20.80;;;;;;4976128;28;20300;-71
2023/09/17 11:00:49;;;;;;;2.23;1.80;;;19.40;21.70;;;;;;4975706;28;20194;-70
2023/09/17 11:03:22;;;;;;;3.57;1.80;;;19.40;21.80;;;;;;4976103;28;20254;-70
2023/09/17 11:05:51;;;;;;;2.70;1.70;;;19.30;20.10;;;;;;4976106;28;20256;-72
2023/09/17 11:08:19;;;;;;;2.00;1.77;;;19.40;21.70;;;;;;4975818;28;20183;-72
2023/09/17 11:10:46;;;;;;;4.50;2.13;;;19.30;21.80;;;;;;4975436;28;20178;-70
2023/09/17 11:13:14;;;;;;;3.43;2.13;;;19.30;22.80;;;;;;4975623;28;20239;-71
2023/09/17 11:15:44;;;;;;;3.30;1.87;;;19.20;24.00;;;;;;4975109;28;20181;-69
2023/09/17 11:18:12;;;;;;;2.90;1.57;;;19.20;24.90;;;;;;4975690;28;20223;-71
2023/09/17 11:21:00;;;;;;;2.07;1.63;;;19.10;25.50;;;;;;4975919;28;20176;-70
2023/09/17 11:23:47;;;;;;;2.30;1.57;;;19.00;26.50;;;;;;4976022;28;20197;-71
2023/09/17 11:26:21;;;;;;;2.90;1.97;;;18.90;26.50;;;;;;4958455;28;20187;-71
2023/09/17 11:29:01;;;;;;;2.30;1.70;;;18.90;26.30;;;;;;4975957;28;20600;-71
2023/09/17 11:31:32;;;;;;;4.47;2.07;;;18.80;27.50;;;;;;4958467;28;20664;-69
2023/09/17 11:34:00;;;;;;;5.17;1.83;;;18.70;30.00;;;;;;4975263;28;20208;-69
2023/09/17 11:36:27;;;;;;;6.77;2.37;;;18.60;33.00;;;;;;4975644;28;20185;-70
2023/09/17 11:38:55;;;;;;;3.80;2.07;;;18.60;35.60;;;;;;4974465;28;20199;-69
2023/09/17 11:41:31;;;;;;;2.60;1.90;;;18.60;35.10;;;;;;4975504;28;20196;-69
2023/09/17 11:44:03;;;;;;;4.47;2.40;;;18.50;38.10;;;;;;4939205;29;20720;-69
2023/09/17 11:46:33;;;;;;;2.50;1.90;;;18.50;37.90;;;;;;4962894;28;20589;-68
2023/09/17 11:49:01;;;;;;;3.43;2.30;;;18.40;38.30;;;;;;4974636;28;20198;-69
2023/09/17 11:51:34;;;;;;;4.23;2.33;;;18.40;41.20;;;;;;4956757;28;20192;-69
2023/09/17 11:54:06;;;;;;;3.37;1.90;;;18.20;41.30;;;;;;4974103;28;20183;-70
2023/09/17 11:56:35;;;;;;;4.40;2.10;;;18.10;42.00;;;;;;4975065;28;20186;-69
2023/09/17 11:59:05;;;;;;;4.27;2.30;;;17.90;45.20;;;;;;4974706;28;20213;-69
2023/09/17 12:01:57;;;;;;;5.27;2.27;;;17.80;45.70;;;;;;4975031;28;20190;-69
2023/09/17 12:04:31;;;;;;;5.30;2.00;;;17.60;49.00;;;;;;4949335;28;20569;-69
2023/09/17 12:06:59;;;;;;;3.97;2.40;;;17.60;47.00;;;;;;4957103;28;20191;-69
2023/09/17 12:12:00;;;;;;;6.10;2.10;;;17.50;46.20;;;;;;4974843;28;20190;-70
2023/09/17 12:14:28;;;;;;;4.03;2.07;;;17.50;48.40;;;;;;4973802;28;20180;-69
2023/09/17 12:16:58;;;;;;;2.33;1.93;;;17.40;50.30;;;;;;4974290;28;20212;-69
2023/09/17 12:19:26;;;;;;;4.33;2.17;;;17.40;50.30;;;;;;4974925;28;20178;-69
2023/09/17 12:21:55;;;;;;;3.23;2.20;;;17.40;54.70;;;;;;4974477;28;20201;-69
2023/09/17 12:24:47;;;;;;;3.83;2.10;;;17.40;56.10;;;;;;4974649;28;20185;-70
2023/09/17 12:27:22;;;;;;;5.27;2.67;;;17.30;60.50;;;;;;4972734;28;20282;-68
2023/09/17 12:29:50;;;;;;;3.93;2.10;;;17.30;60.80;;;;;;4974373;28;20194;-69
2023/09/17 12:32:21;;;;;;;6.53;2.50;;;17.30;64.60;;;;;;4973800;28;20193;-72
2023/09/17 12:34:50;;;;;;;4.07;2.53;;;17.20;66.10;;;;;;4973821;28;20234;-69
2023/09/17 12:37:17;;;;;;;4.57;2.00;;;17.10;69.10;;;;;;4974265;28;20242;-68
2023/09/17 12:39:46;;;;;;;5.70;2.40;;;17.10;73.00;;;;;;4973070;28;20175;-69
2023/09/17 12:42:14;;;;;;;6.73;2.20;;;17.00;81.90;;;;;;4974118;28;20214;-69
2023/09/17 12:44:42;;;;;;;6.03;2.67;;;17.10;82.80;;;;;;4974181;28;20232;-69
2023/09/17 12:47:10;;;;;;;4.63;2.30;;;17.10;82.10;;;;;;4974548;28;20184;-70
2023/09/17 12:49:38;;;;;;;7.60;2.67;;;17.10;80.90;;;;;;4973595;28;20260;-70
2023/09/17 12:52:05;;;;;;;5.47;2.63;;;17.10;86.30;;;;;;4973710;28;20196;-69
2023/09/17 12:54:34;;;;;;;6.00;2.67;;;17.10;85.80;;;;;;4974037;28;20274;-69
2023/09/17 12:57:02;;;;;;;6.73;2.90;;;17.00;89.10;;;;;;4956557;28;20227;-69
2023/09/17 12:59:32;;;;;;;3.83;2.60;;;17.00;88.10;;;;;;4957161;28;20538;-70
2023/09/17 13:02:03;;;;;;;4.70;3.17;;;16.90;90.50;;;;;;4973333;28;20202;-70
2023/09/17 13:04:39;;;;;;;5.83;3.07;;;16.80;93.60;;;;;;4973477;28;20237;-70
2023/09/17 13:07:21;;;;;;;4.77;2.90;;;16.70;95.60;;;;;;4973873;28;20254;-69
2023/09/17 13:09:49;;;;;;;4.43;2.80;;;16.60;97.40;;;;;;4973777;28;20190;-69
2023/09/17 13:12:24;;;;;;;5.80;2.80;;;16.60;99.90;;;;;;4973706;28;20237;-71
2023/09/17 13:14:53;;;;;;;7.67;3.03;;;16.50;99.90;;;;;;4973846;28;20588;-68
2023/09/17 13:17:26;;;;;;;6.67;2.90;;;16.50;99.90;;;;;;4973674;28;20214;-69
2023/09/17 13:19:54;;;;;;;7.47;3.00;;;16.40;99.90;;;;;;4973795;28;20552;-68
2023/09/17 13:22:22;;;;;;;6.00;2.83;;;16.40;99.90;;;;;;4973840;28;20615;-69
2023/09/17 13:24:50;;;;;;;3.67;2.40;;;16.40;99.90;;;;;;4973762;28;20196;-69
2023/09/17 13:27:19;;;;;;;6.70;2.73;;;16.20;99.90;;;;;;4956661;28;20544;-68
2023/09/17 13:29:53;;;;;;;8.80;2.83;;;16.20;99.90;;;;;;4973505;28;20555;-68
2023/09/17 13:32:21;;;;;;;5.77;3.03;;;16.20;99.90;;;;;;4973676;28;20658;-69
2023/09/17 13:34:49;;;;;;;5.57;2.87;;;16.10;99.90;;;;;;4970597;28;20202;-71
2023/09/17 13:37:17;;;;;;;5.93;3.40;;;16.10;99.90;;;;;;4973640;28;20218;-69